createdAt,value
2024-01-18T00:00:57.261Z,32.55
2024-01-18T00:03:24.253Z,27.85
2024-01-18T00:05:51.239Z,29.30
2024-01-18T00:08:18.098Z,24.30
2024-01-18T00:10:44.970Z,17.35
2024-01-18T00:13:12.269Z,25.48
2024-01-18T00:15:39.066Z,19.73
2024-01-18T00:18:06.720Z,27.48
2024-01-18T00:20:33.624Z,25.10
2024-01-18T00:23:00.409Z,31.80
2024-01-18T00:25:27.240Z,23.98
2024-01-18T00:27:53.986Z,29.55
2024-01-18T00:30:20.815Z,25.88
2024-01-18T00:32:47.707Z,27.85
2024-01-18T00:35:14.508Z,22.02
2024-01-18T00:37:41.275Z,25.08
2024-01-18T00:40:08.941Z,29.50
2024-01-18T00:42:35.777Z,19.02
2024-01-18T00:45:02.587Z,26.45
2024-01-18T00:47:29.516Z,24.67
2024-01-18T00:49:56.399Z,28.42
2024-01-18T00:52:23.233Z,21.48
2024-01-18T00:54:50.156Z,35.20
2024-01-18T00:57:17.004Z,20.95
2024-01-18T00:59:43.866Z,30.85
2024-01-18T01:02:11.202Z,25.85
2024-01-18T01:04:37.978Z,30.00
2024-01-18T01:07:05.063Z,24.65
2024-01-18T01:09:32.158Z,35.08
2024-01-18T01:11:58.984Z,30.52
2024-01-18T01:14:25.837Z,23.35
2024-01-18T01:16:52.944Z,28.58
2024-01-18T01:19:19.675Z,23.83
2024-01-18T01:21:46.689Z,32.35
2024-01-18T01:24:13.625Z,38.00
2024-01-18T01:26:40.327Z,23.70
2024-01-18T01:29:09.365Z,24.77
2024-01-18T01:31:36.693Z,27.17
2024-01-18T01:34:03.523Z,28.08
2024-01-18T01:36:30.456Z,29.20
2024-01-18T01:38:57.548Z,33.05
2024-01-18T01:41:24.419Z,23.08
2024-01-18T01:43:58.700Z,33.05
2024-01-18T01:46:26.110Z,34.90
2024-01-18T01:48:57.783Z,24.80
2024-01-18T01:51:24.890Z,30.48
2024-01-18T01:53:53.031Z,29.83
2024-01-18T01:56:19.862Z,32.35
2024-01-18T01:58:47.581Z,25.33
2024-01-18T02:01:14.370Z,32.58
2024-01-18T02:03:41.158Z,19.38
2024-01-18T02:06:08.211Z,35.75
2024-01-18T02:08:35.118Z,38.25
2024-01-18T02:11:02.448Z,37.75
2024-01-18T02:13:31.107Z,32.25
2024-01-18T02:15:57.781Z,26.40
2024-01-18T02:18:24.615Z,26.90
2024-01-18T02:20:51.588Z,42.15
2024-01-18T02:23:18.499Z,35.28
2024-01-18T02:25:45.287Z,27.38
2024-01-18T02:28:12.662Z,39.40
2024-01-18T02:30:39.365Z,28.25
2024-01-18T02:33:06.136Z,38.38
2024-01-18T02:35:32.948Z,27.25
2024-01-18T02:37:59.674Z,23.15
2024-01-18T02:40:26.463Z,23.83
2024-01-18T02:42:53.438Z,28.92
2024-01-18T02:45:20.222Z,34.72
2024-01-18T02:47:47.057Z,28.80
2024-01-18T02:50:14.067Z,35.80
2024-01-18T02:52:40.962Z,27.30
2024-01-18T02:55:08.856Z,41.45
2024-01-18T02:57:35.763Z,22.55
2024-01-18T03:00:02.814Z,29.35
2024-01-18T03:02:29.567Z,44.45
2024-01-18T03:04:56.571Z,44.90
2024-01-18T03:07:23.269Z,44.28
2024-01-18T03:09:50.007Z,47.67
2024-01-18T03:12:16.843Z,37.75
2024-01-18T03:14:43.662Z,46.63
2024-01-18T03:17:10.361Z,40.70
2024-01-18T03:19:37.296Z,40.65
2024-01-18T03:22:04.371Z,41.67
2024-01-18T03:24:31.118Z,39.92
2024-01-18T03:26:58.039Z,41.60
2024-01-18T03:29:24.789Z,48.33
2024-01-18T03:31:51.527Z,43.17
2024-01-18T03:34:18.580Z,51.83
2024-01-18T03:36:45.508Z,41.28
2024-01-18T03:39:12.296Z,43.22
2024-01-18T03:41:39.189Z,39.42
2024-01-18T03:44:05.918Z,50.70
2024-01-18T03:46:32.624Z,46.75
2024-01-18T03:49:00.149Z,46.22
2024-01-18T03:51:27.040Z,50.95
2024-01-18T03:53:53.727Z,52.83
2024-01-18T03:56:20.694Z,52.00
2024-01-18T03:58:47.533Z,51.88
2024-01-18T04:01:14.686Z,55.05
2024-01-18T04:03:44.049Z,50.63
2024-01-18T04:06:13.253Z,46.25
2024-01-18T04:08:40.171Z,55.70
2024-01-18T04:11:07.567Z,46.88
2024-01-18T04:13:34.357Z,54.35
2024-01-18T04:16:01.093Z,50.95
2024-01-18T04:18:28.076Z,46.35
2024-01-18T04:20:55.060Z,50.55
2024-01-18T04:23:22.661Z,54.35
2024-01-18T04:25:53.235Z,64.57
2024-01-18T04:28:20.602Z,55.78
2024-01-18T04:30:47.757Z,51.58
2024-01-18T04:33:14.958Z,51.72
2024-01-18T04:35:41.720Z,59.40
2024-01-18T04:38:08.412Z,58.67
2024-01-18T04:40:35.519Z,66.32
2024-01-18T04:43:02.215Z,60.03
2024-01-18T04:45:28.995Z,62.00
2024-01-18T04:47:57.784Z,59.60
2024-01-18T04:50:27.428Z,67.53
2024-01-18T04:52:55.169Z,61.85
2024-01-18T04:55:22.851Z,70.05
2024-01-18T04:57:50.697Z,64.70
2024-01-18T05:00:18.877Z,57.28
2024-01-18T05:02:45.761Z,64.03
2024-01-18T05:05:13.258Z,75.65
2024-01-18T05:07:42.749Z,67.90
2024-01-18T05:10:10.682Z,76.95
2024-01-18T05:12:38.459Z,66.47
2024-01-18T05:15:06.030Z,51.80
2024-01-18T05:17:38.947Z,61.88
2024-01-18T05:20:07.277Z,66.07
2024-01-18T05:22:34.677Z,60.00
2024-01-18T05:25:01.714Z,74.38
2024-01-18T05:27:31.282Z,69.00
2024-01-18T05:29:58.767Z,66.47
2024-01-18T05:32:25.892Z,66.45
2024-01-18T05:34:53.590Z,69.97
2024-01-18T05:37:23.887Z,56.17
2024-01-18T05:39:54.679Z,66.30
2024-01-18T05:42:21.655Z,65.60
2024-01-18T05:44:49.203Z,63.78
2024-01-18T05:47:16.138Z,57.83
2024-01-18T05:49:43.014Z,49.95
2024-01-18T05:52:09.958Z,59.13
2024-01-18T05:54:36.991Z,56.55
2024-01-18T05:57:05.772Z,60.63
2024-01-18T05:59:32.903Z,56.00
2024-01-18T06:02:00.643Z,56.63
2024-01-18T06:04:27.655Z,61.50
2024-01-18T06:06:54.899Z,56.38
2024-01-18T06:09:22.056Z,51.53
2024-01-18T06:11:49.898Z,47.25
2024-01-18T06:14:16.828Z,51.60
2024-01-18T06:16:43.944Z,50.47
2024-01-18T06:19:13.040Z,40.30
2024-01-18T06:21:40.715Z,36.10
2024-01-18T06:24:08.276Z,39.85
2024-01-18T06:26:34.972Z,41.55
2024-01-18T06:29:02.141Z,33.72
2024-01-18T06:31:29.759Z,39.60
2024-01-18T06:33:57.511Z,28.23
2024-01-18T06:36:24.449Z,32.20
2024-01-18T06:38:51.342Z,27.90
2024-01-18T06:41:18.524Z,40.65
2024-01-18T06:43:45.453Z,37.42
2024-01-18T06:46:19.157Z,40.35
2024-01-18T06:48:54.559Z,31.50
2024-01-18T06:51:23.177Z,37.20
2024-01-18T06:53:50.690Z,36.78
2024-01-18T06:56:17.996Z,33.78
2024-01-18T06:58:45.547Z,29.80
2024-01-18T07:01:14.263Z,33.70
2024-01-18T07:03:43.680Z,38.95
2024-01-18T07:06:11.142Z,33.83
2024-01-18T07:08:40.975Z,38.67
2024-01-18T07:11:07.803Z,32.22
2024-01-18T07:13:34.795Z,36.03
2024-01-18T07:16:01.916Z,29.23
2024-01-18T07:18:28.932Z,36.60
2024-01-18T07:20:55.799Z,31.55
2024-01-18T07:23:22.670Z,35.80
2024-01-18T07:25:52.659Z,28.92
2024-01-18T07:28:22.740Z,33.92
2024-01-18T07:30:50.218Z,33.28
2024-01-18T07:33:17.996Z,31.95
2024-01-18T07:35:44.945Z,35.50
2024-01-18T07:38:11.659Z,30.10
2024-01-18T07:40:38.367Z,31.92
2024-01-18T07:43:05.364Z,33.08
2024-01-18T07:45:32.246Z,37.03
2024-01-18T07:47:59.107Z,38.22
2024-01-18T07:50:34.735Z,31.58
2024-01-18T07:53:04.046Z,29.40
2024-01-18T07:55:31.381Z,29.00
2024-01-18T07:57:58.089Z,36.10
2024-01-18T08:00:25.692Z,31.73
2024-01-18T08:02:52.658Z,33.80
2024-01-18T08:05:19.337Z,33.63
2024-01-18T08:07:46.107Z,30.98
2024-01-18T08:10:13.169Z,36.25
2024-01-18T08:12:39.960Z,36.67
2024-01-18T08:15:07.113Z,34.80
2024-01-18T08:17:34.223Z,32.40
2024-01-18T08:20:01.287Z,33.88
2024-01-18T08:22:29.057Z,33.03
2024-01-18T08:24:58.213Z,32.15
2024-01-18T08:27:25.447Z,27.77
2024-01-18T08:29:52.492Z,27.30
2024-01-18T08:32:19.380Z,31.80
2024-01-18T08:34:46.272Z,28.83
2024-01-18T08:37:14.032Z,34.15
2024-01-18T08:39:41.225Z,25.67
2024-01-18T08:42:08.568Z,28.75
2024-01-18T08:44:35.663Z,23.13
2024-01-18T08:47:02.464Z,33.67
2024-01-18T08:49:30.140Z,33.30
2024-01-18T08:51:57.195Z,32.03
2024-01-18T08:54:24.181Z,29.95
2024-01-18T08:56:50.976Z,32.22
2024-01-18T08:59:17.757Z,30.65
2024-01-18T09:01:44.813Z,26.60
2024-01-18T09:04:11.764Z,29.05
2024-01-18T09:06:39.784Z,26.85
2024-01-18T09:09:11.340Z,28.80
2024-01-18T09:11:39.844Z,30.98
2024-01-18T09:14:07.099Z,32.30
2024-01-18T09:16:33.909Z,26.95
2024-01-18T09:19:10.892Z,24.73
2024-01-18T09:21:42.922Z,30.40
2024-01-18T09:24:09.903Z,28.42
2024-01-18T09:26:37.041Z,31.55
2024-01-18T09:29:03.993Z,33.97
2024-01-18T09:31:38.402Z,36.30
2024-01-18T09:34:09.873Z,25.20
2024-01-18T09:36:37.409Z,29.13
2024-01-18T09:39:09.177Z,30.85
2024-01-18T09:41:37.017Z,33.35
2024-01-18T09:44:05.355Z,28.45
2024-01-18T09:46:33.548Z,29.58
2024-01-18T09:49:03.249Z,29.35
2024-01-18T09:51:32.795Z,37.33
2024-01-18T09:54:02.262Z,32.78
2024-01-18T09:56:29.965Z,33.28
2024-01-18T09:58:58.500Z,35.70
2024-01-18T10:01:27.046Z,28.88
2024-01-18T10:03:55.662Z,34.45
2024-01-18T10:06:23.282Z,29.45
2024-01-18T10:08:52.762Z,27.88
2024-01-18T10:11:20.436Z,29.13
2024-01-18T10:13:58.792Z,31.83
2024-01-18T10:16:28.800Z,30.15
2024-01-18T10:18:59.462Z,23.25
2024-01-18T10:21:26.235Z,30.40
2024-01-18T10:23:54.440Z,29.23
2024-01-18T10:26:29.106Z,33.20
2024-01-18T10:28:57.274Z,25.90
2024-01-18T10:31:25.181Z,29.45
2024-01-18T10:33:52.967Z,29.92
2024-01-18T10:36:23.137Z,33.40
2024-01-18T10:38:50.820Z,29.27
2024-01-18T10:41:20.847Z,31.92
2024-01-18T10:43:49.394Z,32.90
2024-01-18T10:46:16.508Z,33.13
2024-01-18T10:48:48.440Z,29.58
2024-01-18T10:51:15.665Z,28.77
2024-01-18T10:53:43.234Z,32.10
2024-01-18T10:56:10.669Z,32.85
2024-01-18T10:58:37.369Z,29.90
2024-01-18T11:01:05.444Z,32.22
2024-01-18T11:03:33.063Z,31.10
2024-01-18T11:06:00.623Z,28.27
2024-01-18T11:08:28.025Z,34.67
2024-01-18T11:10:55.156Z,33.63
2024-01-18T11:13:21.939Z,37.08
2024-01-18T11:15:49.116Z,31.08
2024-01-18T11:18:16.288Z,33.45
2024-01-18T11:21:10.469Z,34.75
2024-01-18T11:23:39.459Z,37.03
2024-01-18T11:26:08.109Z,34.63
2024-01-18T11:28:35.722Z,34.35
2024-01-18T11:31:03.211Z,34.42
2024-01-18T11:33:30.145Z,29.23
2024-01-18T11:35:59.731Z,33.90
2024-01-18T11:38:33.840Z,32.78
2024-01-18T11:41:11.398Z,37.38
2024-01-18T11:43:57.792Z,34.65
2024-01-18T11:46:40.279Z,37.13
2024-01-18T11:49:07.961Z,34.88
2024-01-18T11:51:35.652Z,35.72
2024-01-18T11:54:03.454Z,33.65
2024-01-18T11:56:30.763Z,37.63
2024-01-18T11:59:03.371Z,38.40
2024-01-18T12:01:33.333Z,38.97
2024-01-18T12:04:00.701Z,38.75
2024-01-18T12:06:30.305Z,35.45
2024-01-18T12:08:58.266Z,32.95
2024-01-18T12:11:25.236Z,34.35
2024-01-18T12:13:52.144Z,44.15
2024-01-18T12:16:22.732Z,39.75
2024-01-18T12:18:51.774Z,33.38
2024-01-18T12:21:20.437Z,37.70
2024-01-18T12:23:48.669Z,37.67
2024-01-18T12:26:16.178Z,31.58
2024-01-18T12:28:42.947Z,41.30
2024-01-18T12:31:10.766Z,36.13
2024-01-18T12:33:38.539Z,36.78
2024-01-18T12:36:08.919Z,33.75
2024-01-18T12:38:37.238Z,34.88
2024-01-18T12:41:04.447Z,36.63
2024-01-18T12:43:31.384Z,38.10
2024-01-18T12:45:58.747Z,33.28
2024-01-18T12:48:28.633Z,38.30
2024-01-18T12:50:56.177Z,40.45
2024-01-18T12:53:25.036Z,34.67
2024-01-18T12:55:52.267Z,39.05
2024-01-18T12:58:18.986Z,45.22
2024-01-18T13:00:51.650Z,53.45
2024-01-18T13:03:18.814Z,49.85
2024-01-18T13:05:46.345Z,44.80
2024-01-18T13:08:14.513Z,41.10
2024-01-18T13:10:41.389Z,38.15
2024-01-18T13:13:11.334Z,40.58
2024-01-18T13:15:41.804Z,34.78
2024-01-18T13:18:10.599Z,38.35
2024-01-18T13:20:40.724Z,38.22
2024-01-18T13:23:10.924Z,41.22
2024-01-18T13:25:38.056Z,39.45
2024-01-18T13:28:05.901Z,41.40
2024-01-18T13:30:33.574Z,38.05
2024-01-18T13:33:05.915Z,34.13
2024-01-18T13:35:35.139Z,44.27
2024-01-18T13:38:01.933Z,35.13
2024-01-18T13:40:28.744Z,39.63
2024-01-18T13:42:55.719Z,37.78
2024-01-18T13:45:25.193Z,35.50
2024-01-18T13:47:52.683Z,43.53
2024-01-18T13:50:23.341Z,40.28
2024-01-18T13:52:50.732Z,52.00
2024-01-18T13:55:18.066Z,37.67
2024-01-18T13:57:45.695Z,39.85
2024-01-18T14:00:13.848Z,37.67
2024-01-18T14:02:41.152Z,36.53
2024-01-18T14:05:08.544Z,35.70
2024-01-18T14:07:35.585Z,39.55
2024-01-18T14:10:02.596Z,40.72
2024-01-18T14:12:29.552Z,39.50
2024-01-18T14:14:56.647Z,44.13
2024-01-18T14:17:23.331Z,36.75
2024-01-18T14:19:50.673Z,40.25
2024-01-18T14:22:17.935Z,43.92
2024-01-18T14:24:45.802Z,37.83
2024-01-18T14:27:12.969Z,40.53
2024-01-18T14:29:40.345Z,42.65
2024-01-18T14:32:07.383Z,45.38
2024-01-18T14:34:34.773Z,45.55
2024-01-18T14:37:01.918Z,43.50
2024-01-18T14:39:28.825Z,43.90
2024-01-18T14:41:55.744Z,38.20
2024-01-18T14:44:22.469Z,39.10
2024-01-18T14:46:49.383Z,43.17
2024-01-18T14:49:19.551Z,41.05
2024-01-18T14:51:46.532Z,37.78
2024-01-18T14:54:13.300Z,39.25
2024-01-18T14:56:48.398Z,40.88
2024-01-18T14:59:15.953Z,40.42
2024-01-18T15:01:43.539Z,41.42
2024-01-18T15:04:11.506Z,42.13
2024-01-18T15:06:38.706Z,42.70
2024-01-18T15:09:05.644Z,43.35
2024-01-18T15:11:32.528Z,40.03
2024-01-18T15:13:59.380Z,40.97
2024-01-18T15:16:27.175Z,39.67
2024-01-18T15:19:03.153Z,43.38
2024-01-18T15:21:35.120Z,47.03
2024-01-18T15:24:02.097Z,47.72
2024-01-18T15:26:28.843Z,40.92
2024-01-18T15:28:55.783Z,47.08
2024-01-18T15:31:29.881Z,48.83
2024-01-18T15:33:57.425Z,43.28
2024-01-18T15:36:26.273Z,42.40
2024-01-18T15:38:53.402Z,48.75
2024-01-18T15:41:20.324Z,48.33
2024-01-18T15:43:47.121Z,49.25
2024-01-18T15:46:16.823Z,52.17
2024-01-18T15:48:43.889Z,49.03
2024-01-18T15:51:13.631Z,48.10
2024-01-18T15:53:40.811Z,42.40
2024-01-18T15:56:10.185Z,44.08
2024-01-18T15:58:36.895Z,44.65
2024-01-18T16:01:04.039Z,45.08
2024-01-18T16:03:30.932Z,48.22
2024-01-18T16:05:57.729Z,47.97
2024-01-18T16:08:24.607Z,44.90
2024-01-18T16:10:51.433Z,43.97
2024-01-18T16:13:18.263Z,49.80
2024-01-18T16:15:45.276Z,48.47
2024-01-18T16:18:12.211Z,45.78
2024-01-18T16:20:38.953Z,47.67
2024-01-18T16:23:05.952Z,52.05
2024-01-18T16:25:33.508Z,46.83
2024-01-18T16:28:00.290Z,49.60
2024-01-18T16:30:30.735Z,42.53
2024-01-18T16:32:58.703Z,47.88
2024-01-18T16:35:25.688Z,52.47
2024-01-18T16:37:52.995Z,43.72
2024-01-18T16:40:19.946Z,49.30
2024-01-18T16:42:46.777Z,52.03
2024-01-18T16:45:16.844Z,51.65
2024-01-18T16:47:44.760Z,50.60
2024-01-18T16:50:11.612Z,43.00
2024-01-18T16:52:38.629Z,46.25
2024-01-18T16:55:06.471Z,52.92
2024-01-18T16:57:35.334Z,51.67
2024-01-18T17:00:02.274Z,53.75
2024-01-18T17:02:29.423Z,55.15
2024-01-18T17:04:56.545Z,47.70
2024-01-18T17:07:24.185Z,53.17
2024-01-18T17:09:51.010Z,57.53
2024-01-18T17:12:17.754Z,53.25
2024-01-18T17:14:44.748Z,47.88
2024-01-18T17:17:11.565Z,51.35
2024-01-18T17:19:38.381Z,52.65
2024-01-18T17:22:05.515Z,49.72
2024-01-18T17:24:34.144Z,54.42
2024-01-18T17:27:01.085Z,55.90
2024-01-18T17:29:28.214Z,53.80
2024-01-18T17:31:55.201Z,60.33
2024-01-18T17:34:23.448Z,57.75
2024-01-18T17:36:50.857Z,57.55
2024-01-18T17:39:20.413Z,57.67
2024-01-18T17:41:47.384Z,58.85
2024-01-18T17:44:17.860Z,53.03
2024-01-18T17:46:50.887Z,58.83
2024-01-18T17:49:23.835Z,62.45
2024-01-18T17:51:50.936Z,57.75
2024-01-18T17:54:18.636Z,50.88
2024-01-18T17:56:49.375Z,56.38
2024-01-18T17:59:17.183Z,55.78
2024-01-18T18:01:43.914Z,58.67
2024-01-18T18:04:10.909Z,61.30
2024-01-18T18:06:39.590Z,56.15
2024-01-18T18:09:07.712Z,67.82
2024-01-18T18:11:34.727Z,58.53
2024-01-18T18:14:01.903Z,61.72
2024-01-18T18:16:28.663Z,58.95
2024-01-18T18:18:55.596Z,59.38
2024-01-18T18:21:24.639Z,62.53
2024-01-18T18:23:51.921Z,58.13
2024-01-18T18:26:18.926Z,70.60
2024-01-18T18:28:45.901Z,64.60
2024-01-18T18:31:12.966Z,61.80
2024-01-18T18:33:40.029Z,66.82
2024-01-18T18:36:07.063Z,61.65
2024-01-18T18:38:34.461Z,60.80
2024-01-18T18:41:02.197Z,59.08
2024-01-18T18:43:30.510Z,71.75
2024-01-18T18:45:58.232Z,59.63
2024-01-18T18:48:25.847Z,59.60
2024-01-18T18:50:53.982Z,62.92
2024-01-18T18:53:20.985Z,61.53
2024-01-18T18:55:48.003Z,58.42
2024-01-18T18:58:15.401Z,69.53
2024-01-18T19:00:42.225Z,60.88
2024-01-18T19:03:09.149Z,66.10
2024-01-18T19:05:36.112Z,54.85
2024-01-18T19:08:04.397Z,68.30
2024-01-18T19:10:31.322Z,61.20
2024-01-18T19:12:58.318Z,69.93
2024-01-18T19:15:25.123Z,62.42
2024-01-18T19:17:52.180Z,60.50
2024-01-18T19:20:20.450Z,63.63
2024-01-18T19:22:47.213Z,68.15
2024-01-18T19:25:14.271Z,64.13
2024-01-18T19:27:41.076Z,68.80
2024-01-18T19:30:08.383Z,66.63
2024-01-18T19:32:35.885Z,56.22
2024-01-18T19:35:03.112Z,61.00
2024-01-18T19:37:29.792Z,59.33
2024-01-18T19:39:56.741Z,60.50
2024-01-18T19:42:23.585Z,58.50
2024-01-18T19:44:50.374Z,69.70
2024-01-18T19:47:17.453Z,66.13
2024-01-18T19:49:45.110Z,71.05
2024-01-18T19:52:12.149Z,64.00
2024-01-18T19:54:39.052Z,66.78
2024-01-18T19:57:06.074Z,70.53
2024-01-18T19:59:35.453Z,67.78
2024-01-18T20:02:06.832Z,63.75
2024-01-18T20:04:35.711Z,62.03
2024-01-18T20:07:03.139Z,58.90
2024-01-18T20:09:30.198Z,53.78
2024-01-18T20:11:57.308Z,62.38
2024-01-18T20:14:25.317Z,62.75
2024-01-18T20:16:52.360Z,58.42
2024-01-18T20:19:19.922Z,58.33
2024-01-18T20:21:48.690Z,60.90
2024-01-18T20:24:15.733Z,63.67
2024-01-18T20:26:43.014Z,59.85
2024-01-18T20:29:10.676Z,60.53
2024-01-18T20:31:44.321Z,58.65
2024-01-18T20:34:11.763Z,69.15
2024-01-18T20:36:39.038Z,68.45
2024-01-18T20:39:08.321Z,64.65
2024-01-18T20:41:36.277Z,67.72
2024-01-18T20:44:03.069Z,63.22
2024-01-18T20:46:32.193Z,61.15
2024-01-18T20:48:59.299Z,63.10
2024-01-18T20:51:26.238Z,68.30
2024-01-18T20:53:53.356Z,72.13
2024-01-18T20:56:20.444Z,66.53
2024-01-18T20:58:50.464Z,65.50
2024-01-18T21:01:18.143Z,74.75
2024-01-18T21:03:45.438Z,61.80
2024-01-18T21:06:12.826Z,70.95
2024-01-18T21:08:39.940Z,71.88
2024-01-18T21:11:06.875Z,72.15
2024-01-18T21:13:33.926Z,67.30
2024-01-18T21:16:01.241Z,67.65
2024-01-18T21:18:28.202Z,65.32
2024-01-18T21:20:55.108Z,72.53
2024-01-18T21:23:23.539Z,75.03
2024-01-18T21:25:50.350Z,69.55
2024-01-18T21:28:17.439Z,60.83
2024-01-18T21:30:44.299Z,65.93
2024-01-18T21:33:12.824Z,66.80
2024-01-18T21:35:39.831Z,66.75
2024-01-18T21:38:06.766Z,61.67
2024-01-18T21:40:33.483Z,62.38
2024-01-18T21:43:00.376Z,59.92
2024-01-18T21:45:27.523Z,60.90
2024-01-18T21:47:57.847Z,63.03
2024-01-18T21:50:25.851Z,61.45
2024-01-18T21:52:53.818Z,66.90
2024-01-18T21:55:20.527Z,61.28
2024-01-18T21:57:47.271Z,58.00
2024-01-18T22:00:14.301Z,67.72
2024-01-18T22:02:42.191Z,68.28
2024-01-18T22:05:09.516Z,65.93
2024-01-18T22:07:36.749Z,65.18
2024-01-18T22:10:03.725Z,67.47
2024-01-18T22:12:30.435Z,65.15
2024-01-18T22:14:57.211Z,65.35
2024-01-18T22:17:24.154Z,63.50
2024-01-18T22:19:58.516Z,58.03
2024-01-18T22:22:33.185Z,71.88
2024-01-18T22:25:00.016Z,63.03
2024-01-18T22:27:28.106Z,60.08
2024-01-18T22:29:55.497Z,62.08
2024-01-18T22:32:23.354Z,68.55
2024-01-18T22:34:52.173Z,57.03
2024-01-18T22:37:19.886Z,62.10
2024-01-18T22:39:46.615Z,66.43
2024-01-18T22:42:13.380Z,56.50
2024-01-18T22:44:40.516Z,64.88
2024-01-18T22:47:07.450Z,57.90
2024-01-18T22:49:35.074Z,55.08
2024-01-18T22:52:02.239Z,66.70
2024-01-18T22:54:29.554Z,61.33
2024-01-18T22:56:57.183Z,66.95
2024-01-18T22:59:24.246Z,59.70
2024-01-18T23:01:51.009Z,69.20
2024-01-18T23:04:17.933Z,65.50
2024-01-18T23:06:44.902Z,57.00
2024-01-18T23:09:11.841Z,60.13
2024-01-18T23:11:38.586Z,61.20
2024-01-18T23:14:05.842Z,56.22
2024-01-18T23:16:32.609Z,64.43
2024-01-18T23:18:59.370Z,59.15
2024-01-18T23:21:26.544Z,61.85
2024-01-18T23:23:53.428Z,66.75
2024-01-18T23:26:20.233Z,65.78
2024-01-18T23:28:47.075Z,61.85
2024-01-18T23:31:13.735Z,68.30
2024-01-18T23:33:40.739Z,66.75
2024-01-18T23:36:08.151Z,75.63
2024-01-18T23:38:34.890Z,67.82
2024-01-18T23:41:01.947Z,71.65
2024-01-18T23:43:28.886Z,79.53
2024-01-18T23:45:55.644Z,85.45
2024-01-18T23:48:22.854Z,81.82
2024-01-18T23:50:50.011Z,93.28
2024-01-18T23:53:16.805Z,71.82
2024-01-18T23:55:43.532Z,78.60
2024-01-18T23:58:10.390Z,86.70
